sensor_id;sensor_type;location;lat;lon;timestamp;pressure;altitude;pressure_sealevel;temperature;humidity
67345;BME280;54230;52.402;6.276;2023-11-21T00:00:00;101040.0;;;10.7;79.5
67345;BME280;54230;52.402;6.276;2023-11-21T00:05:00;101040.0;;;10.6;79.4
67345;BME280;54230;52.402;6.276;2023-11-21T00:10:00;101040.0;;;10.6;79.1
67345;BME280;54230;52.402;6.276;2023-11-21T00:15:00;101040.0;;;10.5;79.3
67345;BME280;54230;52.402;6.276;2023-11-21T00:20:00;101050.0;;;10.6;79.1
67345;BME280;54230;52.402;6.276;2023-11-21T00:25:00;101050.0;;;10.5;79.3
67345;BME280;54230;52.402;6.276;2023-11-21T00:30:00;101050.0;;;10.5;79.5
67345;BME280;54230;52.402;6.276;2023-11-21T00:35:00;101050.0;;;10.5;79.4
67345;BME280;54230;52.402;6.276;2023-11-21T00:40:00;101050.0;;;10.5;79.6
67345;BME280;54230;52.402;6.276;2023-11-21T00:45:00;101060.0;;;10.5;79.9
67345;BME280;54230;52.402;6.276;2023-11-21T00:50:00;101060.0;;;10.4;80.1
67345;BME280;54230;52.402;6.276;2023-11-21T00:55:00;101060.0;;;10.4;80.5
67345;BME280;54230;52.402;6.276;2023-11-21T01:00:00;101070.0;;;10.4;80.7
67345;BME280;54230;52.402;6.276;2023-11-21T01:05:00;101070.0;;;10.4;80.9
67345;BME280;54230;52.402;6.276;2023-11-21T01:10:00;101080.0;;;10.4;81.0
67345;BME280;54230;52.402;6.276;2023-11-21T01:15:00;101080.0;;;10.5;81.2
67345;BME280;54230;52.402;6.276;2023-11-21T01:20:00;101100.0;;;10.5;81.2
67345;BME280;54230;52.402;6.276;2023-11-21T01:25:00;101100.0;;;10.5;81.2
67345;BME280;54230;52.402;6.276;2023-11-21T01:30:01;101110.0;;;10.5;81.2
67345;BME280;54230;52.402;6.276;2023-11-21T01:35:00;101110.0;;;10.6;81.2
67345;BME280;54230;52.402;6.276;2023-11-21T01:40:00;101110.0;;;10.6;81.2
67345;BME280;54230;52.402;6.276;2023-11-21T01:45:00;101110.0;;;10.7;81.4
67345;BME280;54230;52.402;6.276;2023-11-21T01:50:01;101120.0;;;10.7;81.6
67345;BME280;54230;52.402;6.276;2023-11-21T01:55:00;101110.0;;;10.7;81.3
67345;BME280;54230;52.402;6.276;2023-11-21T02:00:01;101110.0;;;10.7;81.3
67345;BME280;54230;52.402;6.276;2023-11-21T02:05:00;101110.0;;;10.7;81.2
67345;BME280;54230;52.402;6.276;2023-11-21T02:10:00;101110.0;;;10.7;81.5
67345;BME280;54230;52.402;6.276;2023-11-21T02:15:00;101110.0;;;10.7;81.6
67345;BME280;54230;52.402;6.276;2023-11-21T02:20:00;101120.0;;;10.8;81.5
67345;BME280;54230;52.402;6.276;2023-11-21T02:25:00;101130.0;;;10.8;81.4
67345;BME280;54230;52.402;6.276;2023-11-21T02:30:00;101130.0;;;10.8;81.5
67345;BME280;54230;52.402;6.276;2023-11-21T02:35:00;101140.0;;;10.8;81.5
67345;BME280;54230;52.402;6.276;2023-11-21T02:40:00;101140.0;;;10.8;81.4
67345;BME280;54230;52.402;6.276;2023-11-21T02:45:00;101140.0;;;10.9;81.3
67345;BME280;54230;52.402;6.276;2023-11-21T02:50:00;101140.0;;;11.0;81.2
67345;BME280;54230;52.402;6.276;2023-11-21T02:55:00;101150.0;;;11.0;81.1
67345;BME280;54230;52.402;6.276;2023-11-21T03:00:00;101150.0;;;11.0;81.3
67345;BME280;54230;52.402;6.276;2023-11-21T03:05:00;101150.0;;;11.0;81.4
67345;BME280;54230;52.402;6.276;2023-11-21T03:10:00;101150.0;;;11.0;81.6
67345;BME280;54230;52.402;6.276;2023-11-21T03:15:00;101140.0;;;11.0;82.1
67345;BME280;54230;52.402;6.276;2023-11-21T03:20:00;101150.0;;;11.1;82.1
67345;BME280;54230;52.402;6.276;2023-11-21T03:25:00;101160.0;;;11.3;81.4
67345;BME280;54230;52.402;6.276;2023-11-21T03:30:00;101160.0;;;11.3;81.0
67345;BME280;54230;52.402;6.276;2023-11-21T03:35:00;101160.0;;;11.4;80.7
67345;BME280;54230;52.402;6.276;2023-11-21T03:40:00;101170.0;;;11.3;80.7
67345;BME280;54230;52.402;6.276;2023-11-21T03:45:00;101170.0;;;11.3;80.8
67345;BME280;54230;52.402;6.276;2023-11-21T03:50:00;101170.0;;;11.3;80.9
67345;BME280;54230;52.402;6.276;2023-11-21T03:55:00;101170.0;;;11.2;81.3
67345;BME280;54230;52.402;6.276;2023-11-21T04:00:00;101170.0;;;11.2;81.8
67345;BME280;54230;52.402;6.276;2023-11-21T04:05:00;101180.0;;;11.2;81.8
67345;BME280;54230;52.402;6.276;2023-11-21T04:10:00;101190.0;;;11.2;81.9
67345;BME280;54230;52.402;6.276;2023-11-21T04:15:00;101190.0;;;11.3;81.4
67345;BME280;54230;52.402;6.276;2023-11-21T04:20:00;101200.0;;;11.4;81.0
67345;BME280;54230;52.402;6.276;2023-11-21T04:25:00;101210.0;;;11.4;80.8
67345;BME280;54230;52.402;6.276;2023-11-21T04:30:00;101220.0;;;11.3;81.0
67345;BME280;54230;52.402;6.276;2023-11-21T04:35:00;101220.0;;;11.3;80.9
67345;BME280;54230;52.402;6.276;2023-11-21T04:40:00;101220.0;;;11.2;81.2
67345;BME280;54230;52.402;6.276;2023-11-21T04:45:00;101220.0;;;11.2;81.7
67345;BME280;54230;52.402;6.276;2023-11-21T04:50:01;101230.0;;;11.2;81.8
67345;BME280;54230;52.402;6.276;2023-11-21T04:55:00;101230.0;;;11.2;81.9
67345;BME280;54230;52.402;6.276;2023-11-21T05:00:00;101250.0;;;11.2;81.9
67345;BME280;54230;52.402;6.276;2023-11-21T05:05:00;101250.0;;;11.3;81.9
67345;BME280;54230;52.402;6.276;2023-11-21T05:10:00;101260.0;;;11.3;82.2
67345;BME280;54230;52.402;6.276;2023-11-21T05:15:00;101270.0;;;11.4;82.3
67345;BME280;54230;52.402;6.276;2023-11-21T05:20:00;101270.0;;;11.4;82.1
67345;BME280;54230;52.402;6.276;2023-11-21T05:25:01;101280.0;;;11.5;82.1
67345;BME280;54230;52.402;6.276;2023-11-21T05:30:01;101280.0;;;11.6;82.1
67345;BME280;54230;52.402;6.276;2023-11-21T05:35:01;101280.0;;;11.6;82.2
67345;BME280;54230;52.402;6.276;2023-11-21T05:40:00;101290.0;;;11.8;81.9
67345;BME280;54230;52.402;6.276;2023-11-21T05:45:00;101300.0;;;11.9;82.0
67345;BME280;54230;52.402;6.276;2023-11-21T05:50:00;101300.0;;;12.0;82.0
67345;BME280;54230;52.402;6.276;2023-11-21T05:55:00;101310.0;;;12.1;81.3
67345;BME280;54230;52.402;6.276;2023-11-21T06:00:00;101320.0;;;12.2;80.6
67345;BME280;54230;52.402;6.276;2023-11-21T06:05:00;101330.0;;;12.2;80.3
67345;BME280;54230;52.402;6.276;2023-11-21T06:10:00;101340.0;;;12.2;80.3
67345;BME280;54230;52.402;6.276;2023-11-21T06:15:01;101350.0;;;12.3;79.8
67345;BME280;54230;52.402;6.276;2023-11-21T06:20:00;101360.0;;;12.3;79.8
67345;BME280;54230;52.402;6.276;2023-11-21T06:25:00;101360.0;;;12.3;79.6
67345;BME280;54230;52.402;6.276;2023-11-21T06:30:00;101370.0;;;12.3;79.8
67345;BME280;54230;52.402;6.276;2023-11-21T06:35:00;101380.0;;;12.3;79.6
67345;BME280;54230;52.402;6.276;2023-11-21T06:40:00;101380.0;;;12.3;79.2
67345;BME280;54230;52.402;6.276;2023-11-21T06:45:00;101390.0;;;12.4;80.2
67345;BME280;54230;52.402;6.276;2023-11-21T06:50:00;101390.0;;;12.4;81.7
67345;BME280;54230;52.402;6.276;2023-11-21T06:55:00;101400.0;;;12.5;82.8
67345;BME280;54230;52.402;6.276;2023-11-21T07:00:00;101410.0;;;12.5;83.0
67345;BME280;54230;52.402;6.276;2023-11-21T07:05:00;101410.0;;;12.5;81.0
67345;BME280;54230;52.402;6.276;2023-11-21T07:10:00;101420.0;;;12.5;79.9
67345;BME280;54230;52.402;6.276;2023-11-21T07:15:00;101440.0;;;12.4;79.6
67345;BME280;54230;52.402;6.276;2023-11-21T07:20:00;101440.0;;;12.4;79.4
67345;BME280;54230;52.402;6.276;2023-11-21T07:25:00;101450.0;;;12.4;79.6
67345;BME280;54230;52.402;6.276;2023-11-21T07:30:00;101470.0;;;12.5;79.2
67345;BME280;54230;52.402;6.276;2023-11-21T07:35:00;101480.0;;;12.4;79.8
67345;BME280;54230;52.402;6.276;2023-11-21T07:40:00;101490.0;;;12.4;80.9
67345;BME280;54230;52.402;6.276;2023-11-21T07:45:00;101500.0;;;12.6;82.2
67345;BME280;54230;52.402;6.276;2023-11-21T07:50:00;101510.0;;;12.6;82.3
67345;BME280;54230;52.402;6.276;2023-11-21T07:55:00;101530.0;;;12.5;81.3
67345;BME280;54230;52.402;6.276;2023-11-21T08:00:00;101540.0;;;12.3;80.6
67345;BME280;54230;52.402;6.276;2023-11-21T08:05:00;101530.0;;;12.2;80.6
67345;BME280;54230;52.402;6.276;2023-11-21T08:10:00;101540.0;;;12.3;80.3
67345;BME280;54230;52.402;6.276;2023-11-21T08:15:00;101550.0;;;12.2;80.3
67345;BME280;54230;52.402;6.276;2023-11-21T08:20:00;101570.0;;;12.2;80.7
67345;BME280;54230;52.402;6.276;2023-11-21T08:25:00;101580.0;;;12.2;81.0
67345;BME280;54230;52.402;6.276;2023-11-21T08:30:00;101580.0;;;12.4;80.8
67345;BME280;54230;52.402;6.276;2023-11-21T08:35:00;101580.0;;;12.4;80.8
67345;BME280;54230;52.402;6.276;2023-11-21T08:40:00;101580.0;;;12.5;81.1
67345;BME280;54230;52.402;6.276;2023-11-21T08:45:00;101600.0;;;12.6;81.3
67345;BME280;54230;52.402;6.276;2023-11-21T08:50:00;101600.0;;;12.6;81.5
67345;BME280;54230;52.402;6.276;2023-11-21T08:55:00;101620.0;;;12.6;81.6
67345;BME280;54230;52.402;6.276;2023-11-21T09:00:00;101620.0;;;12.6;81.6
67345;BME280;54230;52.402;6.276;2023-11-21T09:05:00;101620.0;;;12.6;81.5
67345;BME280;54230;52.402;6.276;2023-11-21T09:10:00;101640.0;;;12.6;81.7
67345;BME280;54230;52.402;6.276;2023-11-21T09:15:00;101640.0;;;12.8;81.6
67345;BME280;54230;52.402;6.276;2023-11-21T09:20:00;101640.0;;;12.9;81.1
67345;BME280;54230;52.402;6.276;2023-11-21T09:25:00;101660.0;;;12.9;81.3
67345;BME280;54230;52.402;6.276;2023-11-21T09:30:00;101660.0;;;12.7;82.0
67345;BME280;54230;52.402;6.276;2023-11-21T09:35:00;101680.0;;;12.6;82.1
67345;BME280;54230;52.402;6.276;2023-11-21T09:40:00;101700.0;;;12.6;82.4
67345;BME280;54230;52.402;6.276;2023-11-21T09:45:03;101700.0;;;12.6;82.4
67345;BME280;54230;52.402;6.276;2023-11-21T09:50:01;101700.0;;;12.6;82.4
67345;BME280;54230;52.402;6.276;2023-11-21T09:55:01;101710.0;;;12.6;82.1
67345;BME280;54230;52.402;6.276;2023-11-21T10:00:01;101730.0;;;12.6;82.2
67345;BME280;54230;52.402;6.276;2023-11-21T10:05:01;101730.0;;;12.7;82.5
67345;BME280;54230;52.402;6.276;2023-11-21T10:10:01;101730.0;;;12.7;82.1
67345;BME280;54230;52.402;6.276;2023-11-21T10:15:03;101730.0;;;12.8;81.9
67345;BME280;54230;52.402;6.276;2023-11-21T10:20:00;101730.0;;;12.9;81.7
67345;BME280;54230;52.402;6.276;2023-11-21T10:25:00;101740.0;;;13.1;81.5
67345;BME280;54230;52.402;6.276;2023-11-21T10:30:00;101750.0;;;13.1;81.2
67345;BME280;54230;52.402;6.276;2023-11-21T10:35:00;101770.0;;;13.0;81.0
67345;BME280;54230;52.402;6.276;2023-11-21T10:40:00;101770.0;;;12.7;81.5
67345;BME280;54230;52.402;6.276;2023-11-21T10:45:00;101780.0;;;12.7;81.7
67345;BME280;54230;52.402;6.276;2023-11-21T10:50:00;101780.0;;;12.9;81.0
67345;BME280;54230;52.402;6.276;2023-11-21T10:55:00;101790.0;;;12.9;80.7
67345;BME280;54230;52.402;6.276;2023-11-21T11:00:01;101790.0;;;12.9;80.2
67345;BME280;54230;52.402;6.276;2023-11-21T11:05:01;101800.0;;;12.9;80.2
67345;BME280;54230;52.402;6.276;2023-11-21T11:10:00;101800.0;;;12.9;80.3
67345;BME280;54230;52.402;6.276;2023-11-21T11:15:01;101810.0;;;12.9;80.0
67345;BME280;54230;52.402;6.276;2023-11-21T11:20:00;101810.0;;;13.0;79.9
67345;BME280;54230;52.402;6.276;2023-11-21T11:25:11;101820.0;;;13.1;79.7
67345;BME280;54230;52.402;6.276;2023-11-21T11:30:08;101820.0;;;12.9;80.3
67345;BME280;54230;52.402;6.276;2023-11-21T11:35:04;101820.0;;;12.5;81.0
67345;BME280;54230;52.402;6.276;2023-11-21T11:40:00;101830.0;;;12.3;81.0
67345;BME280;54230;52.402;6.276;2023-11-21T11:45:00;101840.0;;;12.0;81.8
67345;BME280;54230;52.402;6.276;2023-11-21T11:50:03;101850.0;;;11.8;82.8
67345;BME280;54230;52.402;6.276;2023-11-21T11:55:02;101850.0;;;11.6;83.4
67345;BME280;54230;52.402;6.276;2023-11-21T12:00:09;101850.0;;;11.8;83.4
67345;BME280;54230;52.402;6.276;2023-11-21T12:05:00;101870.0;;;11.9;83.1
67345;BME280;54230;52.402;6.276;2023-11-21T12:10:01;101880.0;;;11.9;82.8
67345;BME280;54230;52.402;6.276;2023-11-21T12:15:00;101890.0;;;11.9;82.4
67345;BME280;54230;52.402;6.276;2023-11-21T12:20:02;101890.0;;;12.0;82.0
67345;BME280;54230;52.402;6.276;2023-11-21T12:25:00;101900.0;;;11.9;82.0
67345;BME280;54230;52.402;6.276;2023-11-21T12:30:00;101900.0;;;11.9;82.1
67345;BME280;54230;52.402;6.276;2023-11-21T12:35:00;101910.0;;;12.0;81.6
67345;BME280;54230;52.402;6.276;2023-11-21T12:40:00;101920.0;;;12.0;81.3
67345;BME280;54230;52.402;6.276;2023-11-21T12:45:09;101920.0;;;12.1;80.8
67345;BME280;54230;52.402;6.276;2023-11-21T12:50:02;101930.0;;;12.2;80.3
67345;BME280;54230;52.402;6.276;2023-11-21T12:55:00;101920.0;;;12.0;80.2
67345;BME280;54230;52.402;6.276;2023-11-21T13:00:00;101930.0;;;12.1;79.8
67345;BME280;54230;52.402;6.276;2023-11-21T13:05:00;101930.0;;;12.2;79.1
67345;BME280;54230;52.402;6.276;2023-11-21T13:10:00;101940.0;;;11.9;78.5
67345;BME280;54230;52.402;6.276;2023-11-21T13:15:03;101940.0;;;11.7;78.4
67345;BME280;54230;52.402;6.276;2023-11-21T13:20:00;101940.0;;;11.5;78.5
67345;BME280;54230;52.402;6.276;2023-11-21T13:25:00;101950.0;;;11.2;79.3
67345;BME280;54230;52.402;6.276;2023-11-21T13:30:00;101960.0;;;11.2;79.5
67345;BME280;54230;52.402;6.276;2023-11-21T13:35:00;101970.0;;;11.3;79.2
67345;BME280;54230;52.402;6.276;2023-11-21T13:40:00;102000.0;;;11.3;78.7
67345;BME280;54230;52.402;6.276;2023-11-21T13:45:00;102000.0;;;11.4;78.5
67345;BME280;54230;52.402;6.276;2023-11-21T13:50:00;102010.0;;;11.6;77.9
67345;BME280;54230;52.402;6.276;2023-11-21T13:55:00;102010.0;;;11.5;77.4
67345;BME280;54230;52.402;6.276;2023-11-21T14:00:00;102020.0;;;11.4;76.4
67345;BME280;54230;52.402;6.276;2023-11-21T14:05:00;102030.0;;;11.4;75.0
67345;BME280;54230;52.402;6.276;2023-11-21T14:10:00;102030.0;;;11.5;74.0
67345;BME280;54230;52.402;6.276;2023-11-21T14:15:00;102040.0;;;11.6;73.9
67345;BME280;54230;52.402;6.276;2023-11-21T14:20:00;102050.0;;;11.5;74.3
67345;BME280;54230;52.402;6.276;2023-11-21T14:25:00;102060.0;;;11.4;74.5
67345;BME280;54230;52.402;6.276;2023-11-21T14:30:00;102070.0;;;11.4;74.0
67345;BME280;54230;52.402;6.276;2023-11-21T14:35:00;102080.0;;;11.5;73.2
67345;BME280;54230;52.402;6.276;2023-11-21T14:40:00;102080.0;;;11.4;73.3
67345;BME280;54230;52.402;6.276;2023-11-21T14:45:00;102080.0;;;11.4;72.4
67345;BME280;54230;52.402;6.276;2023-11-21T14:50:00;102100.0;;;11.3;72.2
67345;BME280;54230;52.402;6.276;2023-11-21T14:55:00;102120.0;;;11.3;71.8
67345;BME280;54230;52.402;6.276;2023-11-21T15:00:00;102130.0;;;11.2;72.1
67345;BME280;54230;52.402;6.276;2023-11-21T15:05:00;102140.0;;;11.1;71.7
67345;BME280;54230;52.402;6.276;2023-11-21T15:10:00;102150.0;;;11.1;70.9
67345;BME280;54230;52.402;6.276;2023-11-21T15:15:00;102150.0;;;11.1;70.9
67345;BME280;54230;52.402;6.276;2023-11-21T15:20:00;102170.0;;;11.0;71.0
67345;BME280;54230;52.402;6.276;2023-11-21T15:25:00;102180.0;;;11.0;71.1
67345;BME280;54230;52.402;6.276;2023-11-21T15:30:00;102190.0;;;10.9;72.1
67345;BME280;54230;52.402;6.276;2023-11-21T15:35:00;102200.0;;;10.7;72.8
67345;BME280;54230;52.402;6.276;2023-11-21T15:40:00;102200.0;;;10.6;72.8
67345;BME280;54230;52.402;6.276;2023-11-21T15:45:00;102200.0;;;10.5;72.8
67345;BME280;54230;52.402;6.276;2023-11-21T15:50:00;102210.0;;;10.5;72.7
67345;BME280;54230;52.402;6.276;2023-11-21T15:55:00;102230.0;;;10.5;72.9
67345;BME280;54230;52.402;6.276;2023-11-21T16:00:00;102230.0;;;10.5;73.0
67345;BME280;54230;52.402;6.276;2023-11-21T16:05:00;102240.0;;;10.5;73.0
67345;BME280;54230;52.402;6.276;2023-11-21T16:10:00;102250.0;;;10.5;73.0
67345;BME280;54230;52.402;6.276;2023-11-21T16:15:00;102260.0;;;10.6;72.9
67345;BME280;54230;52.402;6.276;2023-11-21T16:20:00;102270.0;;;10.6;73.0
67345;BME280;54230;52.402;6.276;2023-11-21T16:25:00;102280.0;;;10.6;73.0
67345;BME280;54230;52.402;6.276;2023-11-21T16:30:00;102290.0;;;10.5;73.2
67345;BME280;54230;52.402;6.276;2023-11-21T16:35:00;102290.0;;;10.6;73.1
67345;BME280;54230;52.402;6.276;2023-11-21T16:40:00;102310.0;;;10.5;73.1
67345;BME280;54230;52.402;6.276;2023-11-21T16:45:00;102320.0;;;10.4;73.3
67345;BME280;54230;52.402;6.276;2023-11-21T16:50:00;102330.0;;;10.4;73.3
67345;BME280;54230;52.402;6.276;2023-11-21T16:55:00;102330.0;;;10.5;73.1
67345;BME280;54230;52.402;6.276;2023-11-21T17:00:00;102350.0;;;10.5;73.6
67345;BME280;54230;52.402;6.276;2023-11-21T17:05:01;102360.0;;;10.4;73.7
67345;BME280;54230;52.402;6.276;2023-11-21T17:10:00;102370.0;;;10.3;73.6
67345;BME280;54230;52.402;6.276;2023-11-21T17:15:00;102380.0;;;10.2;73.2
67345;BME280;54230;52.402;6.276;2023-11-21T17:20:00;102390.0;;;10.2;73.2
67345;BME280;54230;52.402;6.276;2023-11-21T17:25:00;102400.0;;;10.1;73.2
67345;BME280;54230;52.402;6.276;2023-11-21T17:30:00;102409.99999999999;;;10.0;73.2
67345;BME280;54230;52.402;6.276;2023-11-21T17:35:00;102430.0;;;9.9;73.4
67345;BME280;54230;52.402;6.276;2023-11-21T17:40:00;102440.00000000001;;;9.9;73.7
67345;BME280;54230;52.402;6.276;2023-11-21T17:45:00;102450.0;;;9.7;73.8
67345;BME280;54230;52.402;6.276;2023-11-21T17:50:00;102450.0;;;9.6;73.8
67345;BME280;54230;52.402;6.276;2023-11-21T17:55:00;102459.99999999999;;;9.5;74.3
67345;BME280;54230;52.402;6.276;2023-11-21T18:00:00;102459.99999999999;;;9.4;74.4
67345;BME280;54230;52.402;6.276;2023-11-21T18:05:00;102459.99999999999;;;9.2;74.6
67345;BME280;54230;52.402;6.276;2023-11-21T18:10:00;102470.0;;;9.1;74.9
67345;BME280;54230;52.402;6.276;2023-11-21T18:15:00;102470.0;;;9.0;75.3
67345;BME280;54230;52.402;6.276;2023-11-21T18:20:00;102470.0;;;8.8;75.5
67345;BME280;54230;52.402;6.276;2023-11-21T18:25:00;102480.0;;;8.7;75.7
67345;BME280;54230;52.402;6.276;2023-11-21T18:30:00;102490.00000000001;;;8.6;76.1
67345;BME280;54230;52.402;6.276;2023-11-21T18:35:00;102490.00000000001;;;8.5;75.9
67345;BME280;54230;52.402;6.276;2023-11-21T18:40:00;102490.00000000001;;;8.6;75.5
67345;BME280;54230;52.402;6.276;2023-11-21T18:45:00;102490.00000000001;;;8.5;75.6
67345;BME280;54230;52.402;6.276;2023-11-21T18:50:00;102509.99999999999;;;8.4;75.8
67345;BME280;54230;52.402;6.276;2023-11-21T18:55:00;102509.99999999999;;;8.3;75.7
67345;BME280;54230;52.402;6.276;2023-11-21T19:00:00;102520.0;;;8.3;75.4
67345;BME280;54230;52.402;6.276;2023-11-21T19:05:00;102509.99999999999;;;8.2;75.1
67345;BME280;54230;52.402;6.276;2023-11-21T19:10:00;102520.0;;;8.1;74.7
67345;BME280;54230;52.402;6.276;2023-11-21T19:15:00;102530.0;;;8.1;74.9
67345;BME280;54230;52.402;6.276;2023-11-21T19:20:00;102540.00000000001;;;7.9;76.0
67345;BME280;54230;52.402;6.276;2023-11-21T19:25:00;102550.0;;;7.7;77.0
67345;BME280;54230;52.402;6.276;2023-11-21T19:30:00;102570.0;;;7.5;77.9
67345;BME280;54230;52.402;6.276;2023-11-21T19:35:00;102570.0;;;7.4;78.4
67345;BME280;54230;52.402;6.276;2023-11-21T19:40:00;102570.0;;;7.3;78.7
67345;BME280;54230;52.402;6.276;2023-11-21T19:45:00;102580.0;;;7.2;78.7
67345;BME280;54230;52.402;6.276;2023-11-21T19:50:00;102580.0;;;7.1;78.7
67345;BME280;54230;52.402;6.276;2023-11-21T19:55:00;102590.00000000001;;;7.1;78.7
67345;BME280;54230;52.402;6.276;2023-11-21T20:00:00;102590.00000000001;;;6.9;79.2
67345;BME280;54230;52.402;6.276;2023-11-21T20:05:00;102590.00000000001;;;6.9;79.7
67345;BME280;54230;52.402;6.276;2023-11-21T20:10:00;102600.0;;;6.8;79.5
67345;BME280;54230;52.402;6.276;2023-11-21T20:15:00;102609.99999999999;;;6.8;79.6
67345;BME280;54230;52.402;6.276;2023-11-21T20:20:00;102620.0;;;6.8;79.9
67345;BME280;54230;52.402;6.276;2023-11-21T20:25:00;102620.0;;;6.8;79.9
67345;BME280;54230;52.402;6.276;2023-11-21T20:30:00;102620.0;;;6.8;79.7
67345;BME280;54230;52.402;6.276;2023-11-21T20:35:00;102620.0;;;6.9;79.7
67345;BME280;54230;52.402;6.276;2023-11-21T20:40:01;102640.00000000001;;;6.9;79.5
67345;BME280;54230;52.402;6.276;2023-11-21T20:45:00;102640.00000000001;;;6.9;79.6
67345;BME280;54230;52.402;6.276;2023-11-21T20:50:00;102650.0;;;6.9;79.6
67345;BME280;54230;52.402;6.276;2023-11-21T20:55:00;102650.0;;;6.9;79.6
67345;BME280;54230;52.402;6.276;2023-11-21T21:00:00;102659.99999999999;;;7.0;79.4
67345;BME280;54230;52.402;6.276;2023-11-21T21:05:00;102670.0;;;6.9;79.5
67345;BME280;54230;52.402;6.276;2023-11-21T21:10:00;102659.99999999999;;;6.9;79.5
67345;BME280;54230;52.402;6.276;2023-11-21T21:15:00;102670.0;;;6.8;79.3
67345;BME280;54230;52.402;6.276;2023-11-21T21:20:00;102680.0;;;6.6;80.2
67345;BME280;54230;52.402;6.276;2023-11-21T21:25:00;102680.0;;;6.7;80.0
67345;BME280;54230;52.402;6.276;2023-11-21T21:30:00;102700.0;;;6.7;80.2
67345;BME280;54230;52.402;6.276;2023-11-21T21:35:00;102700.0;;;6.8;80.2
67345;BME280;54230;52.402;6.276;2023-11-21T21:40:00;102709.99999999999;;;6.9;80.2
67345;BME280;54230;52.402;6.276;2023-11-21T21:45:00;102709.99999999999;;;6.9;80.8
67345;BME280;54230;52.402;6.276;2023-11-21T21:50:00;102720.0;;;7.2;80.5
67345;BME280;54230;52.402;6.276;2023-11-21T21:55:00;102720.0;;;7.2;80.0
67345;BME280;54230;52.402;6.276;2023-11-21T22:00:00;102720.0;;;7.3;79.9
67345;BME280;54230;52.402;6.276;2023-11-21T22:05:00;102720.0;;;7.5;79.4
67345;BME280;54230;52.402;6.276;2023-11-21T22:10:00;102730.0;;;7.6;79.4
67345;BME280;54230;52.402;6.276;2023-11-21T22:15:00;102750.0;;;7.5;79.5
67345;BME280;54230;52.402;6.276;2023-11-21T22:20:00;102759.99999999999;;;7.6;79.3
67345;BME280;54230;52.402;6.276;2023-11-21T22:25:00;102759.99999999999;;;7.6;79.3
67345;BME280;54230;52.402;6.276;2023-11-21T22:30:00;102780.0;;;7.6;78.9
67345;BME280;54230;52.402;6.276;2023-11-21T22:35:00;102780.0;;;7.4;79.1
67345;BME280;54230;52.402;6.276;2023-11-21T22:40:00;102790.00000000001;;;7.4;79.4
67345;BME280;54230;52.402;6.276;2023-11-21T22:45:00;102790.00000000001;;;7.6;78.9
67345;BME280;54230;52.402;6.276;2023-11-21T22:50:00;102800.0;;;7.7;78.5
67345;BME280;54230;52.402;6.276;2023-11-21T22:55:00;102809.99999999999;;;7.8;78.6
67345;BME280;54230;52.402;6.276;2023-11-21T23:00:02;102800.0;;;7.8;78.6
67345;BME280;54230;52.402;6.276;2023-11-21T23:05:00;102809.99999999999;;;7.8;78.2
67345;BME280;54230;52.402;6.276;2023-11-21T23:10:00;102820.0;;;7.7;77.8
67345;BME280;54230;52.402;6.276;2023-11-21T23:15:00;102820.0;;;7.5;77.6
67345;BME280;54230;52.402;6.276;2023-11-21T23:20:00;102830.0;;;7.3;78.2
67345;BME280;54230;52.402;6.276;2023-11-21T23:25:00;102820.0;;;7.2;78.6
67345;BME280;54230;52.402;6.276;2023-11-21T23:30:00;102820.0;;;7.2;78.4
67345;BME280;54230;52.402;6.276;2023-11-21T23:35:00;102809.99999999999;;;7.1;78.4
67345;BME280;54230;52.402;6.276;2023-11-21T23:40:00;102809.99999999999;;;7.1;78.4
67345;BME280;54230;52.402;6.276;2023-11-21T23:45:00;102809.99999999999;;;7.0;78.4
67345;BME280;54230;52.402;6.276;2023-11-21T23:50:00;102820.0;;;7.0;78.4
67345;BME280;54230;52.402;6.276;2023-11-21T23:55:00;102809.99999999999;;;6.9;77.8
